Time;durP1;ratioP1;P1;durP2;ratioP2;P2;SDS_P1;SDS_P2;PMS_P1;PMS_P2;Temp;Humidity;BMP_temperature;BMP_pressure;BME280_temperature;BME280_humidity;BME280_pressure;Samples;Min_cycle;Max_cycle;Signal;HPM_P1;HPM_P2
2023/05/29 00:01:35;;;;;;;0.53;0.53;;;13.00;67.60;;;;;;5053204;28;20252;-68
2023/05/29 00:04:01;;;;;;;2.57;2.23;;;13.00;67.90;;;;;;5053153;28;20181;-68
2023/05/29 00:06:27;;;;;;;2.40;1.30;;;12.90;68.90;;;;;;5052888;28;20949;-68
2023/05/29 00:08:53;;;;;;;0.93;0.80;;;12.90;68.10;;;;;;5053246;28;20748;-68
2023/05/29 00:11:18;;;;;;;2.07;1.40;;;12.90;68.80;;;;;;5053017;28;20255;-68
2023/05/29 00:13:44;;;;;;;0.50;0.50;;;12.90;68.80;;;;;;5052955;28;20196;-68
2023/05/29 00:16:09;;;;;;;1.60;1.50;;;12.80;69.70;;;;;;5052913;28;20168;-68
2023/05/29 00:18:36;;;;;;;1.37;1.27;;;12.70;70.30;;;;;;5053012;28;20278;-68
2023/05/29 00:21:02;;;;;;;1.07;0.80;;;12.70;71.80;;;;;;5053019;28;20665;-68
2023/05/29 00:23:27;;;;;;;1.90;1.27;;;12.60;72.60;;;;;;5052802;28;20427;-68
2023/05/29 00:25:53;;;;;;;1.30;0.97;;;12.50;73.10;;;;;;5052670;28;20752;-68
2023/05/29 00:28:19;;;;;;;1.60;1.50;;;12.50;72.30;;;;;;5052889;28;20627;-68
2023/05/29 00:30:45;;;;;;;2.47;1.03;;;12.40;72.60;;;;;;5052795;28;20296;-68
2023/05/29 00:33:10;;;;;;;0.93;0.93;;;12.40;71.30;;;;;;5055705;28;20283;-68
2023/05/29 00:35:36;;;;;;;1.73;1.20;;;12.40;69.90;;;;;;5056480;28;20482;-68
2023/05/29 00:38:02;;;;;;;1.60;1.47;;;12.40;69.70;;;;;;5056626;28;20408;-68
2023/05/29 00:40:27;;;;;;;1.37;1.30;;;12.50;70.10;;;;;;5056597;28;20538;-68
2023/05/29 00:42:53;;;;;;;0.80;0.80;;;12.40;70.40;;;;;;5056470;28;20228;-68
2023/05/29 00:45:19;;;;;;;1.23;1.00;;;12.50;70.80;;;;;;5055342;28;20178;-68
2023/05/29 00:47:46;;;;;;;4.73;2.33;;;12.60;71.70;;;;;;5056694;28;20542;-68
2023/05/29 00:50:13;;;;;;;1.67;1.57;;;12.60;72.80;;;;;;5056191;28;20455;-68
2023/05/29 00:52:41;;;;;;;1.47;1.37;;;12.50;72.90;;;;;;5056265;28;20424;-68
2023/05/29 00:55:08;;;;;;;1.20;1.10;;;12.40;73.30;;;;;;5056461;28;20410;-68
2023/05/29 00:57:35;;;;;;;2.77;2.33;;;12.40;74.00;;;;;;5056185;28;20429;-68
2023/05/29 01:00:13;;;;;;;1.27;1.27;;;12.20;74.50;;;;;;5056416;28;20450;-68
2023/05/29 01:02:44;;;;;;;1.30;1.20;;;12.30;75.70;;;;;;5056307;28;20435;-68
2023/05/29 01:05:14;;;;;;;1.10;0.60;;;12.20;73.10;;;;;;5056584;28;20405;-68
2023/05/29 01:07:42;;;;;;;1.33;1.13;;;12.20;71.40;;;;;;5055928;28;20413;-68
2023/05/29 01:10:08;;;;;;;1.07;0.97;;;12.30;73.00;;;;;;5056189;28;20506;-68
2023/05/29 01:12:59;;;;;;;2.90;2.20;;;12.40;72.50;;;;;;5056094;28;20515;-68
2023/05/29 01:15:35;;;;;;;1.20;1.10;;;12.50;71.30;;;;;;5055776;28;20699;-68
2023/05/29 01:18:08;;;;;;;1.43;0.97;;;12.50;70.90;;;;;;5055948;28;20389;-68
2023/05/29 01:20:52;;;;;;;0.87;0.87;;;12.50;72.40;;;;;;5055790;28;20474;-69
2023/05/29 01:23:46;;;;;;;0.87;0.87;;;12.50;74.60;;;;;;5055769;28;20439;-68
2023/05/29 01:26:22;;;;;;;0.70;0.70;;;12.40;75.20;;;;;;5055317;28;20444;-68
2023/05/29 01:28:51;;;;;;;3.07;1.50;;;12.30;75.20;;;;;;5055729;28;20411;-68
2023/05/29 01:31:20;;;;;;;2.37;1.17;;;12.20;75.40;;;;;;5055763;28;20446;-68
2023/05/29 01:33:53;;;;;;;1.83;0.97;;;12.20;76.80;;;;;;5055604;28;20783;-68
2023/05/29 01:36:19;;;;;;;1.00;1.00;;;12.10;77.10;;;;;;5055472;28;20385;-68
2023/05/29 01:38:45;;;;;;;5.83;1.83;;;12.10;78.20;;;;;;5055565;28;20409;-68
2023/05/29 01:41:11;;;;;;;3.30;2.33;;;12.10;76.80;;;;;;5055539;28;20762;-68
2023/05/29 01:43:38;;;;;;;1.53;1.43;;;12.10;76.40;;;;;;5055098;28;20573;-68
2023/05/29 01:46:03;;;;;;;2.58;2.25;;;12.10;76.30;;;;;;5055224;28;20911;-68
2023/05/29 01:48:30;;;;;;;1.47;1.40;;;12.20;76.30;;;;;;5055466;28;20182;-68
2023/05/29 01:50:57;;;;;;;2.10;1.13;;;12.20;77.50;;;;;;5055399;28;20460;-68
2023/05/29 01:53:23;;;;;;;1.60;1.50;;;12.10;78.30;;;;;;5055360;28;20199;-68
2023/05/29 01:55:50;;;;;;;1.30;1.13;;;12.00;79.50;;;;;;5055218;28;20409;-68
2023/05/29 01:58:17;;;;;;;0.83;0.83;;;11.90;80.50;;;;;;5055344;28;20193;-68
2023/05/29 02:00:43;;;;;;;1.20;0.70;;;11.90;79.10;;;;;;5055185;28;20411;-68
2023/05/29 02:03:08;;;;;;;4.10;1.60;;;11.90;78.80;;;;;;5055011;28;20527;-68
2023/05/29 02:05:34;;;;;;;2.53;1.00;;;11.80;79.50;;;;;;5054846;28;20244;-68
2023/05/29 02:07:59;;;;;;;2.50;2.33;;;11.80;80.20;;;;;;5054958;28;20650;-68
2023/05/29 02:10:25;;;;;;;1.27;1.17;;;11.90;81.00;;;;;;5055033;28;20229;-68
2023/05/29 02:12:51;;;;;;;1.70;1.00;;;11.90;80.60;;;;;;5054990;28;20221;-68
2023/05/29 02:15:17;;;;;;;2.83;1.37;;;11.90;81.60;;;;;;5054836;28;20401;-68
2023/05/29 02:17:44;;;;;;;1.63;1.53;;;11.90;81.00;;;;;;5054839;28;20159;-68
2023/05/29 02:20:10;;;;;;;0.80;0.80;;;11.70;81.50;;;;;;5054886;28;20190;-68
2023/05/29 02:22:36;;;;;;;0.70;0.70;;;11.70;81.10;;;;;;5054695;28;20610;-68
2023/05/29 02:25:02;;;;;;;3.03;1.63;;;11.60;83.30;;;;;;5054675;28;20193;-68
2023/05/29 02:27:27;;;;;;;1.40;1.10;;;11.50;84.00;;;;;;5054551;28;20649;-68
2023/05/29 02:29:53;;;;;;;2.27;2.07;;;11.50;84.30;;;;;;5054463;28;20190;-68
2023/05/29 02:32:19;;;;;;;1.77;0.80;;;11.50;85.20;;;;;;5054581;28;20166;-68
2023/05/29 02:34:45;;;;;;;1.70;1.50;;;11.40;86.20;;;;;;5054442;28;20434;-68
2023/05/29 02:37:10;;;;;;;1.23;1.23;;;11.50;84.40;;;;;;5054246;28;20162;-68
2023/05/29 02:39:36;;;;;;;1.07;0.93;;;11.40;84.70;;;;;;5054408;28;20408;-68
2023/05/29 02:42:02;;;;;;;1.43;1.33;;;11.50;85.80;;;;;;5054517;28;20732;-68
2023/05/29 02:44:27;;;;;;;5.10;1.43;;;11.50;85.80;;;;;;5054225;28;20239;-68
2023/05/29 02:46:53;;;;;;;1.20;1.10;;;11.50;85.40;;;;;;5054038;28;20177;-68
2023/05/29 02:49:19;;;;;;;2.33;1.23;;;11.60;85.00;;;;;;5053941;28;20719;-68
2023/05/29 02:51:44;;;;;;;1.97;1.50;;;11.70;83.30;;;;;;5054445;28;20250;-68
2023/05/29 02:54:12;;;;;;;8.07;4.20;;;11.70;85.70;;;;;;5053548;28;20220;-68
2023/05/29 02:56:37;;;;;;;1.90;1.40;;;11.70;85.80;;;;;;5053730;28;20729;-68
2023/05/29 02:59:03;;;;;;;0.83;0.83;;;11.60;85.10;;;;;;5054247;28;20496;-68
2023/05/29 03:01:28;;;;;;;2.20;2.00;;;11.50;87.50;;;;;;5054111;28;20178;-68
2023/05/29 03:03:55;;;;;;;1.50;1.43;;;11.50;88.50;;;;;;5053837;28;20221;-68
2023/05/29 03:06:21;;;;;;;1.17;1.17;;;11.50;88.90;;;;;;5053681;28;20630;-68
2023/05/29 03:08:48;;;;;;;2.53;1.47;;;11.50;89.00;;;;;;5053878;28;20415;-68
2023/05/29 03:11:15;;;;;;;2.17;2.00;;;11.50;88.30;;;;;;5053808;28;20193;-68
2023/05/29 03:13:40;;;;;;;4.43;1.40;;;11.50;90.00;;;;;;5053588;28;20281;-68
2023/05/29 03:16:08;;;;;;;1.43;1.33;;;11.50;90.00;;;;;;5053500;28;20496;-68
2023/05/29 03:18:34;;;;;;;4.00;1.92;;;11.40;90.40;;;;;;5053635;28;20166;-68
2023/05/29 03:21:00;;;;;;;1.25;1.15;;;11.40;90.40;;;;;;5053143;28;20174;-68
2023/05/29 03:23:25;;;;;;;2.40;1.53;;;11.40;90.30;;;;;;5053514;28;20185;-69
2023/05/29 03:25:51;;;;;;;1.70;1.43;;;11.30;90.70;;;;;;5053230;28;20170;-69
2023/05/29 03:28:17;;;;;;;1.03;1.00;;;11.20;90.50;;;;;;5053602;28;20176;-68
2023/05/29 03:30:42;;;;;;;1.70;1.60;;;11.30;91.60;;;;;;5053469;28;20622;-68
2023/05/29 03:33:08;;;;;;;1.10;1.00;;;11.40;91.00;;;;;;5053350;28;20194;-68
2023/05/29 03:35:34;;;;;;;2.30;0.97;;;11.30;91.30;;;;;;5053327;28;20511;-68
2023/05/29 03:38:00;;;;;;;1.23;1.10;;;11.30;90.50;;;;;;5053579;28;20216;-68
2023/05/29 03:40:25;;;;;;;3.13;1.60;;;11.40;90.50;;;;;;5053460;28;20162;-68
2023/05/29 03:42:51;;;;;;;1.00;0.90;;;11.40;91.60;;;;;;5053239;28;20421;-68
2023/05/29 03:45:17;;;;;;;1.27;1.27;;;11.40;90.50;;;;;;5053504;28;20170;-68
2023/05/29 03:47:42;;;;;;;3.73;1.37;;;11.40;89.10;;;;;;5053306;28;20238;-68
2023/05/29 03:50:08;;;;;;;0.53;0.53;;;11.40;89.60;;;;;;5053091;28;20206;-68
2023/05/29 03:52:34;;;;;;;2.17;1.90;;;11.40;89.30;;;;;;5053250;28;20186;-68
2023/05/29 03:54:59;;;;;;;5.30;2.43;;;11.30;89.60;;;;;;5053131;28;20178;-68
2023/05/29 03:57:26;;;;;;;2.97;1.50;;;11.50;90.50;;;;;;5052949;28;20648;-68
2023/05/29 03:59:52;;;;;;;1.40;0.70;;;11.50;90.90;;;;;;5053184;28;20194;-68
2023/05/29 04:02:18;;;;;;;2.30;2.00;;;11.30;91.60;;;;;;5053085;28;20458;-68
2023/05/29 04:04:43;;;;;;;2.73;2.50;;;11.30;91.70;;;;;;5053050;28;20423;-67
2023/05/29 04:07:09;;;;;;;2.20;2.10;;;11.30;91.80;;;;;;5055870;28;20170;-68
2023/05/29 04:09:34;;;;;;;4.23;2.30;;;11.30;92.40;;;;;;5057232;28;20251;-68
2023/05/29 04:12:02;;;;;;;0.50;0.50;;;11.30;92.30;;;;;;5057139;28;20594;-68
2023/05/29 04:14:28;;;;;;;1.65;1.55;;;11.50;92.20;;;;;;5057010;28;20181;-68
2023/05/29 04:16:54;;;;;;;2.20;1.40;;;11.50;91.60;;;;;;5056936;28;20200;-68
2023/05/29 04:19:20;;;;;;;1.43;0.50;;;11.60;91.00;;;;;;5057203;28;20622;-67
2023/05/29 04:21:47;;;;;;;7.57;1.38;;;11.70;90.70;;;;;;5057118;28;20664;-68
2023/05/29 04:24:16;;;;;;;7.60;2.77;;;11.80;90.80;;;;;;5056792;28;20664;-68
2023/05/29 04:26:41;;;;;;;5.23;2.20;;;11.90;91.60;;;;;;5056663;28;20407;-68
2023/05/29 04:29:08;;;;;;;2.00;1.27;;;11.90;91.70;;;;;;5057066;28;20408;-68
2023/05/29 04:31:36;;;;;;;2.47;2.27;;;11.90;92.00;;;;;;5056832;28;20206;-69
2023/05/29 04:34:04;;;;;;;0.90;0.90;;;12.10;92.20;;;;;;5056764;28;20431;-68
2023/05/29 04:36:32;;;;;;;2.60;1.83;;;12.50;92.00;;;;;;5056541;28;20412;-68
2023/05/29 04:38:58;;;;;;;1.67;1.37;;;12.90;91.60;;;;;;5056625;28;20471;-68
2023/05/29 04:41:29;;;;;;;1.73;1.60;;;13.20;90.90;;;;;;5056631;28;20499;-68
2023/05/29 04:43:56;;;;;;;2.17;1.43;;;13.40;90.40;;;;;;5056585;28;20929;-68
2023/05/29 04:46:22;;;;;;;1.30;1.20;;;13.50;88.10;;;;;;5056417;28;20803;-68
2023/05/29 04:48:52;;;;;;;4.73;2.40;;;13.60;88.30;;;;;;5056589;28;20462;-68
2023/05/29 04:51:19;;;;;;;1.37;1.27;;;13.70;88.80;;;;;;5056542;28;20459;-68
2023/05/29 04:53:46;;;;;;;7.43;2.03;;;13.90;87.30;;;;;;5056275;28;20420;-69
2023/05/29 04:56:12;;;;;;;1.37;1.27;;;14.20;85.80;;;;;;5055496;28;20923;-68
2023/05/29 04:58:38;;;;;;;1.67;0.70;;;14.50;84.60;;;;;;5056464;28;20873;-69
2023/05/29 05:01:04;;;;;;;1.63;1.53;;;14.90;83.00;;;;;;5056386;28;20404;-68
2023/05/29 05:03:33;;;;;;;0.80;0.80;;;15.20;83.50;;;;;;5056791;28;20218;-69
2023/05/29 05:06:00;;;;;;;2.10;1.40;;;15.90;82.80;;;;;;5055945;28;20896;-69
2023/05/29 05:08:25;;;;;;;1.73;1.00;;;16.90;80.30;;;;;;5056154;28;20448;-69
2023/05/29 05:10:51;;;;;;;1.03;1.03;;;17.80;77.80;;;;;;5056201;28;20884;-69
2023/05/29 05:13:16;;;;;;;1.83;1.73;;;18.40;75.50;;;;;;5056039;28;20194;-69
2023/05/29 05:15:42;;;;;;;4.00;1.50;;;18.70;73.80;;;;;;5055777;28;20170;-69
2023/05/29 05:18:08;;;;;;;1.57;1.40;;;18.70;70.90;;;;;;5055409;28;20180;-69
2023/05/29 05:20:33;;;;;;;0.97;0.87;;;18.70;70.60;;;;;;5055902;28;20223;-69
2023/05/29 05:22:59;;;;;;;0.90;0.90;;;18.50;71.30;;;;;;5055830;28;20189;-68
2023/05/29 05:25:25;;;;;;;2.00;1.87;;;18.30;70.30;;;;;;5056000;28;20213;-68
2023/05/29 05:27:51;;;;;;;2.83;1.50;;;18.10;71.70;;;;;;5055831;28;20885;-68
2023/05/29 05:30:16;;;;;;;1.37;1.27;;;17.90;70.20;;;;;;5056155;28;20250;-69
2023/05/29 05:32:42;;;;;;;1.90;1.30;;;17.80;70.70;;;;;;5055815;28;20188;-69
2023/05/29 05:35:10;;;;;;;0.70;0.60;;;17.70;70.30;;;;;;5055600;28;20167;-68
2023/05/29 05:37:35;;;;;;;1.73;1.60;;;17.70;69.80;;;;;;5055484;28;20154;-69
2023/05/29 05:40:01;;;;;;;1.73;1.63;;;17.70;71.20;;;;;;5055770;28;20406;-68
2023/05/29 05:42:26;;;;;;;0.90;0.90;;;17.70;69.80;;;;;;5055768;28;20718;-69
2023/05/29 05:44:52;;;;;;;0.90;0.90;;;18.00;70.50;;;;;;5055638;28;20190;-69
2023/05/29 05:47:18;;;;;;;1.37;1.27;;;18.30;70.90;;;;;;5055218;28;20179;-69
2023/05/29 05:49:43;;;;;;;0.97;0.97;;;18.80;69.30;;;;;;5055179;28;20209;-69
2023/05/29 05:52:09;;;;;;;1.53;1.07;;;19.00;67.60;;;;;;5055344;28;20599;-68
2023/05/29 05:54:35;;;;;;;1.60;1.50;;;19.10;64.90;;;;;;5055276;28;20203;-69
2023/05/29 05:57:00;;;;;;;1.80;1.20;;;19.20;66.00;;;;;;5055217;28;20165;-69
2023/05/29 05:59:26;;;;;;;1.27;1.00;;;19.30;64.10;;;;;;5055282;28;20191;-69
2023/05/29 06:01:52;;;;;;;1.53;1.43;;;19.60;60.90;;;;;;5055289;28;20174;-68
2023/05/29 06:04:18;;;;;;;1.50;1.03;;;19.60;58.40;;;;;;5054996;28;20190;-69
2023/05/29 06:06:44;;;;;;;0.80;0.80;;;19.60;58.30;;;;;;5054888;28;20239;-69
2023/05/29 06:09:11;;;;;;;1.43;1.33;;;19.80;58.70;;;;;;5055067;28;20446;-69
2023/05/29 06:11:37;;;;;;;1.30;1.10;;;20.10;60.60;;;;;;5055000;28;20456;-69
2023/05/29 06:14:03;;;;;;;1.60;1.50;;;21.00;58.50;;;;;;5054862;28;20431;-69
2023/05/29 06:16:29;;;;;;;2.30;0.90;;;22.40;54.70;;;;;;5054660;28;20177;-69
2023/05/29 06:18:55;;;;;;;1.50;1.00;;;24.30;53.50;;;;;;5054823;28;20712;-70
2023/05/29 06:21:21;;;;;;;1.30;1.20;;;26.30;49.80;;;;;;5054665;28;20427;-70
2023/05/29 06:23:47;;;;;;;2.13;1.53;;;28.20;44.50;;;;;;5054726;28;20424;-69
2023/05/29 06:26:13;;;;;;;1.00;0.90;;;29.40;43.20;;;;;;5054682;28;20919;-70
2023/05/29 06:28:38;;;;;;;1.37;1.27;;;30.60;39.80;;;;;;5054285;28;20181;-70
2023/05/29 06:31:04;;;;;;;0.93;0.87;;;30.80;36.20;;;;;;5053843;28;20237;-69
2023/05/29 06:33:30;;;;;;;2.10;1.37;;;31.00;35.30;;;;;;5054374;28;20189;-69
2023/05/29 06:35:56;;;;;;;1.30;0.93;;;30.50;35.00;;;;;;5054432;28;20166;-69
2023/05/29 06:38:21;;;;;;;0.97;0.97;;;29.70;36.30;;;;;;5054514;28;20408;-69
2023/05/29 06:40:47;;;;;;;0.90;0.80;;;29.90;35.80;;;;;;5054501;28;20158;-69
2023/05/29 06:43:12;;;;;;;0.80;0.80;;;30.00;37.30;;;;;;5054224;28;20208;-70
2023/05/29 06:45:38;;;;;;;2.00;1.40;;;29.90;34.30;;;;;;5054246;28;20189;-69
2023/05/29 06:48:04;;;;;;;1.50;1.40;;;27.80;37.40;;;;;;5054152;28;20196;-70
2023/05/29 06:50:30;;;;;;;1.00;0.83;;;26.90;39.50;;;;;;5054075;28;20202;-69
2023/05/29 06:52:55;;;;;;;3.00;1.20;;;26.40;40.90;;;;;;5054095;28;20269;-69
2023/05/29 06:55:21;;;;;;;1.03;0.93;;;26.80;39.40;;;;;;5054010;28;20166;-69
2023/05/29 06:57:46;;;;;;;1.03;0.93;;;26.80;39.50;;;;;;5054207;28;20174;-69
2023/05/29 07:00:13;;;;;;;1.27;0.80;;;27.40;39.30;;;;;;5054053;28;20622;-69
2023/05/29 07:02:38;;;;;;;1.40;1.30;;;26.80;38.40;;;;;;5053845;28;20204;-69
2023/05/29 07:05:04;;;;;;;1.53;1.40;;;26.10;39.40;;;;;;5054152;28;20405;-69
2023/05/29 07:07:30;;;;;;;1.20;1.10;;;25.20;39.40;;;;;;5053773;28;20686;-69
2023/05/29 07:09:56;;;;;;;1.70;1.60;;;25.00;40.80;;;;;;5054014;28;20415;-69
2023/05/29 07:12:24;;;;;;;0.77;0.50;;;25.20;41.50;;;;;;5053997;28;20296;-69
2023/05/29 07:14:50;;;;;;;1.40;0.93;;;25.80;41.30;;;;;;5053782;28;20163;-70
2023/05/29 07:17:15;;;;;;;0.90;0.90;;;26.00;39.60;;;;;;5053575;28;20744;-69
2023/05/29 07:19:41;;;;;;;1.23;1.00;;;25.70;41.90;;;;;;5052416;28;20524;-69
2023/05/29 07:22:07;;;;;;;2.20;1.90;;;25.40;40.90;;;;;;5053689;28;20204;-69
2023/05/29 07:24:33;;;;;;;1.47;1.20;;;24.90;41.20;;;;;;5053811;28;20201;-68
2023/05/29 07:26:58;;;;;;;0.97;0.97;;;24.60;40.40;;;;;;5053683;28;20173;-69
2023/05/29 07:29:24;;;;;;;1.43;1.13;;;24.70;40.30;;;;;;5053629;28;20182;-69
2023/05/29 07:31:51;;;;;;;1.37;1.00;;;24.50;40.00;;;;;;5053716;28;20250;-69
2023/05/29 07:34:17;;;;;;;1.57;1.07;;;24.50;41.40;;;;;;5053432;28;20197;-69
2023/05/29 07:37:15;;;;;;;2.03;1.30;;;25.10;39.80;;;;;;5053338;28;20388;-69
2023/05/29 07:39:42;;;;;;;2.37;1.00;;;25.50;38.90;;;;;;5052430;28;20476;-69
2023/05/29 07:42:08;;;;;;;1.67;0.73;;;25.70;39.40;;;;;;5053137;28;20405;-69
2023/05/29 07:44:33;;;;;;;4.00;1.10;;;26.00;38.50;;;;;;5053357;28;20900;-69
2023/05/29 07:46:59;;;;;;;0.67;0.67;;;25.90;39.40;;;;;;5053060;28;20597;-69
2023/05/29 07:49:25;;;;;;;1.30;0.80;;;26.70;39.50;;;;;;5053175;28;20235;-69
2023/05/29 07:51:52;;;;;;;1.43;0.80;;;27.50;38.50;;;;;;5053438;28;20198;-70
2023/05/29 07:54:20;;;;;;;1.23;0.93;;;28.60;35.80;;;;;;5053290;28;21002;-70
2023/05/29 07:56:46;;;;;;;0.90;0.90;;;29.40;34.20;;;;;;5053117;28;20253;-70
2023/05/29 07:59:11;;;;;;;1.53;1.43;;;30.10;33.10;;;;;;5053188;28;20492;-69
2023/05/29 08:01:39;;;;;;;1.37;0.93;;;30.80;34.30;;;;;;5053410;28;20404;-70
2023/05/29 08:04:04;;;;;;;1.87;0.80;;;31.50;31.80;;;;;;5053122;28;20205;-69
2023/05/29 08:06:32;;;;;;;3.47;0.90;;;31.10;32.80;;;;;;5052850;28;20492;-69
2023/05/29 08:08:58;;;;;;;1.80;1.07;;;29.90;32.20;;;;;;5053042;28;20190;-69
2023/05/29 08:11:23;;;;;;;2.47;0.80;;;28.40;34.70;;;;;;5053089;28;20535;-69
2023/05/29 08:13:49;;;;;;;1.23;0.70;;;28.30;35.10;;;;;;5053002;28;20190;-69
2023/05/29 08:16:16;;;;;;;1.20;1.00;;;28.50;35.60;;;;;;5052979;28;20170;-69
2023/05/29 08:18:42;;;;;;;1.27;1.17;;;27.80;35.80;;;;;;5053079;28;20166;-69
2023/05/29 08:21:09;;;;;;;1.63;0.97;;;27.50;35.20;;;;;;5053126;28;20411;-70
2023/05/29 08:23:35;;;;;;;0.87;0.70;;;27.40;34.50;;;;;;5053016;28;20436;-70
2023/05/29 08:26:02;;;;;;;1.73;0.80;;;28.10;34.60;;;;;;5052875;28;20869;-69
2023/05/29 08:28:28;;;;;;;1.50;1.20;;;29.50;34.50;;;;;;5052841;28;20412;-70
2023/05/29 08:30:54;;;;;;;1.70;0.70;;;31.10;34.40;;;;;;5052908;28;20808;-70
2023/05/29 08:33:19;;;;;;;0.93;0.80;;;32.60;32.40;;;;;;5052927;28;20198;-70
2023/05/29 08:35:45;;;;;;;2.00;1.30;;;33.20;31.10;;;;;;5052663;28;20521;-70
2023/05/29 08:38:11;;;;;;;1.30;1.03;;;33.20;29.30;;;;;;5052928;28;20623;-69
2023/05/29 08:40:37;;;;;;;1.30;1.20;;;32.20;30.00;;;;;;5052769;28;20253;-70
2023/05/29 08:43:07;;;;;;;2.50;1.10;;;32.80;29.80;;;;;;5052713;28;20194;-70
2023/05/29 08:45:34;;;;;;;1.17;1.00;;;33.80;32.40;;;;;;5051390;28;20489;-70
2023/05/29 08:48:01;;;;;;;1.33;1.00;;;34.40;28.70;;;;;;5052788;28;20436;-70
2023/05/29 08:50:26;;;;;;;2.00;1.23;;;34.20;28.60;;;;;;5052562;28;20907;-70
2023/05/29 08:52:52;;;;;;;2.27;1.10;;;33.20;29.20;;;;;;5053288;28;20420;-70
2023/05/29 08:55:18;;;;;;;1.33;1.23;;;33.20;29.80;;;;;;5056596;28;20167;-70
2023/05/29 08:57:44;;;;;;;2.07;1.13;;;33.20;28.50;;;;;;5056274;28;20212;-69
2023/05/29 09:00:15;;;;;;;2.27;1.40;;;32.60;28.30;;;;;;5056258;28;20170;-69
2023/05/29 09:02:44;;;;;;;2.33;2.20;;;31.80;30.50;;;;;;5056483;28;20470;-70
2023/05/29 09:05:10;;;;;;;1.90;1.30;;;31.80;30.80;;;;;;5056217;28;20404;-70
2023/05/29 09:07:39;;;;;;;1.10;0.97;;;31.80;30.30;;;;;;5056192;28;20443;-70
2023/05/29 09:10:09;;;;;;;1.47;1.30;;;31.40;31.00;;;;;;5056106;28;20529;-70
2023/05/29 09:12:35;;;;;;;2.00;1.23;;;31.50;31.60;;;;;;5056057;28;20490;-70
2023/05/29 09:15:01;;;;;;;0.83;0.80;;;32.30;30.60;;;;;;5056069;28;20416;-70
2023/05/29 09:17:33;;;;;;;0.83;0.80;;;32.40;30.00;;;;;;5055814;28;20404;-70
2023/05/29 09:20:00;;;;;;;1.17;1.07;;;32.50;32.90;;;;;;5055833;28;20412;-70
2023/05/29 09:22:26;;;;;;;1.70;1.07;;;33.00;31.00;;;;;;5055886;28;20546;-70
2023/05/29 09:24:52;;;;;;;1.43;0.93;;;33.40;30.00;;;;;;5056098;28;20500;-70
2023/05/29 09:27:18;;;;;;;1.50;1.00;;;33.50;29.60;;;;;;5055815;28;20405;-70
2023/05/29 09:29:45;;;;;;;2.03;1.23;;;33.20;28.60;;;;;;5055953;28;20503;-70
2023/05/29 09:32:17;;;;;;;1.13;1.00;;;33.20;30.30;;;;;;5055843;28;20171;-70
2023/05/29 09:34:44;;;;;;;0.80;0.70;;;33.50;29.50;;;;;;5055691;28;20396;-70
2023/05/29 09:37:10;;;;;;;1.23;0.70;;;33.60;30.60;;;;;;5055519;28;20413;-69
2023/05/29 09:39:43;;;;;;;1.97;1.10;;;33.90;30.40;;;;;;5055853;28;20415;-70
2023/05/29 09:42:12;;;;;;;1.67;1.00;;;33.50;28.90;;;;;;5055653;28;20888;-69
2023/05/29 09:44:37;;;;;;;2.13;1.30;;;32.70;29.90;;;;;;5055580;28;20411;-69
2023/05/29 09:47:04;;;;;;;2.37;1.07;;;32.20;29.50;;;;;;5055238;28;20484;-70
2023/05/29 09:49:31;;;;;;;1.07;0.70;;;32.30;31.40;;;;;;5055438;28;20615;-70
2023/05/29 09:52:01;;;;;;;0.83;0.83;;;32.20;32.20;;;;;;5055675;28;20778;-69
2023/05/29 09:54:30;;;;;;;0.97;0.97;;;32.30;30.00;;;;;;5055355;28;20928;-70
2023/05/29 09:56:58;;;;;;;0.90;0.90;;;32.50;29.90;;;;;;5055171;28;20405;-70
2023/05/29 09:59:24;;;;;;;1.47;1.27;;;32.50;30.00;;;;;;5055391;28;20415;-70
2023/05/29 10:02:01;;;;;;;1.20;1.10;;;32.20;30.00;;;;;;5055312;28;20397;-69
2023/05/29 10:04:27;;;;;;;2.00;0.97;;;32.20;30.60;;;;;;5055047;28;20436;-69
2023/05/29 10:06:56;;;;;;;2.53;1.70;;;32.20;30.00;;;;;;5054975;28;20405;-70
2023/05/29 10:09:25;;;;;;;1.53;1.43;;;32.20;31.10;;;;;;5055415;28;20227;-70
2023/05/29 10:11:53;;;;;;;1.13;1.03;;;31.90;28.90;;;;;;5055176;28;20451;-70
2023/05/29 10:14:20;;;;;;;2.20;0.73;;;30.90;30.00;;;;;;5054938;28;20428;-69
2023/05/29 10:16:50;;;;;;;1.03;0.90;;;30.20;32.00;;;;;;5054701;28;20490;-69
2023/05/29 10:19:24;;;;;;;0.93;0.93;;;30.20;33.90;;;;;;5054992;28;20850;-70
2023/05/29 10:21:51;;;;;;;1.03;0.97;;;30.10;31.30;;;;;;5055047;28;20847;-69
2023/05/29 10:24:18;;;;;;;2.83;1.03;;;30.00;32.70;;;;;;5054732;28;20807;-70
2023/05/29 10:26:48;;;;;;;1.60;1.30;;;30.00;31.60;;;;;;5054526;28;20424;-70
2023/05/29 10:29:16;;;;;;;2.10;1.03;;;29.90;33.70;;;;;;5055017;28;20795;-69
2023/05/29 10:31:58;;;;;;;1.33;1.07;;;30.30;34.10;;;;;;5054746;28;20822;-69
2023/05/29 10:34:40;;;;;;;1.17;0.90;;;30.80;33.70;;;;;;5054496;28;20439;-69
2023/05/29 10:37:25;;;;;;;2.57;1.60;;;31.10;34.30;;;;;;5054405;28;20405;-70
2023/05/29 10:39:51;;;;;;;1.30;1.20;;;31.40;33.00;;;;;;5054907;28;20411;-69
2023/05/29 10:43:01;;;;;;;1.77;1.50;;;31.20;30.40;;;;;;5054365;28;20816;-70
2023/05/29 10:45:31;;;;;;;2.00;1.30;;;30.60;30.80;;;;;;5053788;28;20265;-70
2023/05/29 10:48:35;;;;;;;1.20;1.10;;;30.50;31.60;;;;;;5054504;28;20741;-70
2023/05/29 10:51:06;;;;;;;2.20;1.40;;;30.00;31.60;;;;;;5054413;28;20805;-69
2023/05/29 10:53:32;;;;;;;1.43;1.30;;;29.10;32.40;;;;;;5054368;28;20743;-69
2023/05/29 10:56:01;;;;;;;1.03;0.93;;;28.50;32.90;;;;;;5053949;28;20499;-69
2023/05/29 10:58:27;;;;;;;1.33;1.23;;;28.00;32.60;;;;;;5054169;28;20170;-69
2023/05/29 11:00:55;;;;;;;3.10;2.07;;;27.70;33.00;;;;;;5054115;28;20404;-69
2023/05/29 11:03:22;;;;;;;1.00;1.00;;;27.60;34.00;;;;;;5053995;28;20196;-70
2023/05/29 11:06:01;;;;;;;1.10;0.93;;;27.30;36.20;;;;;;5052513;28;20785;-69
2023/05/29 11:08:46;;;;;;;1.33;0.93;;;26.90;35.10;;;;;;5054054;28;20392;-69
2023/05/29 11:11:16;;;;;;;2.90;1.10;;;26.90;35.40;;;;;;5054016;28;20555;-69
2023/05/29 11:13:52;;;;;;;1.73;1.07;;;27.00;35.60;;;;;;5053849;28;20511;-69
2023/05/29 11:16:29;;;;;;;4.57;0.90;;;27.30;36.60;;;;;;5053168;28;20379;-69
2023/05/29 11:18:56;;;;;;;2.60;1.80;;;27.30;33.30;;;;;;5053939;28;20835;-69
2023/05/29 11:21:34;;;;;;;3.60;1.47;;;27.00;32.00;;;;;;5053708;28;20876;-69
2023/05/29 11:24:02;;;;;;;2.30;2.07;;;26.50;32.70;;;;;;5053729;28;20409;-69
2023/05/29 11:26:29;;;;;;;2.07;1.60;;;26.20;33.10;;;;;;5053438;28;20395;-69
2023/05/29 11:29:04;;;;;;;1.73;1.17;;;26.10;35.20;;;;;;5053570;28;20896;-69
2023/05/29 11:31:34;;;;;;;2.50;1.40;;;26.20;34.80;;;;;;5053684;28;21042;-69
2023/05/29 11:34:03;;;;;;;1.33;1.13;;;26.10;35.60;;;;;;5053401;28;20401;-69
2023/05/29 11:36:31;;;;;;;2.60;1.37;;;26.00;36.30;;;;;;5053285;28;20424;-69
2023/05/29 11:38:57;;;;;;;3.33;1.00;;;26.10;35.80;;;;;;5053619;28;20386;-69
2023/05/29 11:41:22;;;;;;;1.87;1.20;;;26.30;35.00;;;;;;5053553;28;20446;-69
2023/05/29 11:43:58;;;;;;;1.33;1.17;;;26.00;34.10;;;;;;5053351;28;20527;-69
2023/05/29 11:46:26;;;;;;;3.03;1.47;;;25.70;34.60;;;;;;5053300;28;20449;-69
2023/05/29 11:48:52;;;;;;;1.00;0.90;;;25.60;34.80;;;;;;5053425;28;20431;-69
2023/05/29 11:51:17;;;;;;;1.40;1.13;;;25.50;35.30;;;;;;5053397;28;20466;-69
2023/05/29 11:53:46;;;;;;;1.23;1.00;;;25.40;34.70;;;;;;5053148;28;20453;-70
2023/05/29 11:56:12;;;;;;;0.53;0.53;;;25.40;37.00;;;;;;5052992;28;20170;-69
2023/05/29 11:58:39;;;;;;;1.03;0.90;;;25.40;39.10;;;;;;5053204;28;20788;-68
2023/05/29 12:01:05;;;;;;;0.80;0.80;;;25.20;40.00;;;;;;5053220;28;20257;-69
2023/05/29 12:03:41;;;;;;;1.50;1.40;;;25.20;37.00;;;;;;5053101;28;20455;-69
2023/05/29 12:06:08;;;;;;;1.30;1.20;;;25.30;36.40;;;;;;5053135;28;20411;-69
2023/05/29 12:08:35;;;;;;;2.77;1.33;;;25.30;36.40;;;;;;5053351;28;20420;-69
2023/05/29 12:11:00;;;;;;;2.07;1.27;;;25.00;36.20;;;;;;5052991;28;20464;-69
2023/05/29 12:13:26;;;;;;;0.70;0.70;;;24.90;34.70;;;;;;5052967;28;20428;-69
2023/05/29 12:15:55;;;;;;;1.47;1.37;;;24.90;34.80;;;;;;5052901;28;20170;-69
2023/05/29 12:18:21;;;;;;;1.50;1.27;;;24.80;34.90;;;;;;5053180;28;20404;-69
2023/05/29 12:20:46;;;;;;;1.33;1.20;;;24.80;34.10;;;;;;5052981;28;20423;-69
2023/05/29 12:23:12;;;;;;;1.27;0.87;;;24.90;37.40;;;;;;5053000;28;20479;-69
2023/05/29 12:25:38;;;;;;;1.17;0.83;;;24.80;34.60;;;;;;5052757;28;20174;-69
2023/05/29 12:28:04;;;;;;;1.60;1.13;;;24.80;34.50;;;;;;5055942;28;20542;-69
2023/05/29 12:30:31;;;;;;;1.10;0.90;;;24.80;35.70;;;;;;5057058;28;20539;-69
2023/05/29 12:32:57;;;;;;;4.83;1.00;;;24.80;36.50;;;;;;5056941;28;20543;-69
2023/05/29 12:35:24;;;;;;;1.97;1.30;;;24.90;38.00;;;;;;5056674;28;20842;-69
2023/05/29 12:38:00;;;;;;;1.60;0.80;;;25.00;37.00;;;;;;5056944;28;20491;-69
2023/05/29 12:40:28;;;;;;;1.07;1.07;;;25.00;34.70;;;;;;5056932;28;20477;-69
2023/05/29 12:42:56;;;;;;;0.73;0.73;;;24.90;34.90;;;;;;5056612;28;20437;-69
2023/05/29 12:45:30;;;;;;;1.43;1.20;;;24.80;38.80;;;;;;5056530;28;20495;-69
2023/05/29 12:48:03;;;;;;;1.30;1.20;;;24.80;36.10;;;;;;5056753;28;20383;-69
2023/05/29 12:50:30;;;;;;;1.70;1.13;;;24.80;35.20;;;;;;5056353;28;20473;-69